sensor_id;sensor_type;location;lat;lon;timestamp;temperature;humidity
69418;DHT22;56610;48.872;2.400;2022-09-17T00:00:39;15.20;99.90
69418;DHT22;56610;48.872;2.400;2022-09-17T00:03:04;15.20;99.90
69418;DHT22;56610;48.872;2.400;2022-09-17T00:05:30;15.20;99.90
69418;DHT22;56610;48.872;2.400;2022-09-17T00:07:56;15.10;99.90
69418;DHT22;56610;48.872;2.400;2022-09-17T00:10:22;15.30;99.90
69418;DHT22;56610;48.872;2.400;2022-09-17T00:12:48;15.20;99.90
69418;DHT22;56610;48.872;2.400;2022-09-17T00:15:14;15.10;99.90
69418;DHT22;56610;48.872;2.400;2022-09-17T00:17:40;15.00;99.90
69418;DHT22;56610;48.872;2.400;2022-09-17T00:20:07;15.00;99.90
69418;DHT22;56610;48.872;2.400;2022-09-17T00:22:38;15.00;99.90
69418;DHT22;56610;48.872;2.400;2022-09-17T00:25:05;15.00;99.90
69418;DHT22;56610;48.872;2.400;2022-09-17T00:27:32;14.90;99.90
69418;DHT22;56610;48.872;2.400;2022-09-17T00:29:58;15.00;99.90
69418;DHT22;56610;48.872;2.400;2022-09-17T00:32:23;14.90;99.90
69418;DHT22;56610;48.872;2.400;2022-09-17T00:34:50;15.00;99.90
69418;DHT22;56610;48.872;2.400;2022-09-17T00:37:20;15.00;99.90
69418;DHT22;56610;48.872;2.400;2022-09-17T00:39:45;14.80;99.90
69418;DHT22;56610;48.872;2.400;2022-09-17T00:42:13;14.70;99.90
69418;DHT22;56610;48.872;2.400;2022-09-17T00:47:07;14.70;99.90
69418;DHT22;56610;48.872;2.400;2022-09-17T00:49:34;14.90;99.90
69418;DHT22;56610;48.872;2.400;2022-09-17T00:52:09;14.90;99.90
69418;DHT22;56610;48.872;2.400;2022-09-17T00:54:41;14.90;99.90
69418;DHT22;56610;48.872;2.400;2022-09-17T00:57:08;14.90;99.90
69418;DHT22;56610;48.872;2.400;2022-09-17T00:59:34;14.80;99.90
69418;DHT22;56610;48.872;2.400;2022-09-17T01:02:00;14.70;99.90
69418;DHT22;56610;48.872;2.400;2022-09-17T01:04:26;14.60;99.90
69418;DHT22;56610;48.872;2.400;2022-09-17T01:07:14;14.60;99.90
69418;DHT22;56610;48.872;2.400;2022-09-17T01:10:18;14.70;99.90
69418;DHT22;56610;48.872;2.400;2022-09-17T01:13:01;14.70;99.90
69418;DHT22;56610;48.872;2.400;2022-09-17T01:27:38;14.50;99.90
69418;DHT22;56610;48.872;2.400;2022-09-17T01:33:23;14.50;99.90
69418;DHT22;56610;48.872;2.400;2022-09-17T01:36:15;14.50;99.90
69418;DHT22;56610;48.872;2.400;2022-09-17T01:38:55;14.50;99.90
69418;DHT22;56610;48.872;2.400;2022-09-17T01:41:49;14.50;99.90
69418;DHT22;56610;48.872;2.400;2022-09-17T01:44:17;14.50;99.90
69418;DHT22;56610;48.872;2.400;2022-09-17T01:46:51;14.60;99.90
69418;DHT22;56610;48.872;2.400;2022-09-17T01:49:19;14.60;99.90
69418;DHT22;56610;48.872;2.400;2022-09-17T01:51:46;14.40;99.90
69418;DHT22;56610;48.872;2.400;2022-09-17T01:54:25;14.50;99.90
69418;DHT22;56610;48.872;2.400;2022-09-17T01:56:58;14.40;99.90
69418;DHT22;56610;48.872;2.400;2022-09-17T01:59:28;14.30;99.90
69418;DHT22;56610;48.872;2.400;2022-09-17T02:01:56;14.30;99.90
69418;DHT22;56610;48.872;2.400;2022-09-17T02:04:28;14.30;99.90
69418;DHT22;56610;48.872;2.400;2022-09-17T02:07:00;14.30;99.90
69418;DHT22;56610;48.872;2.400;2022-09-17T02:09:33;14.30;99.90
69418;DHT22;56610;48.872;2.400;2022-09-17T02:12:04;14.20;99.90
69418;DHT22;56610;48.872;2.400;2022-09-17T02:14:47;14.40;99.90
69418;DHT22;56610;48.872;2.400;2022-09-17T02:17:21;14.30;99.90
69418;DHT22;56610;48.872;2.400;2022-09-17T02:19:49;14.10;99.90
69418;DHT22;56610;48.872;2.400;2022-09-17T02:22:36;14.10;99.90
69418;DHT22;56610;48.872;2.400;2022-09-17T02:28:10;14.00;99.90
69418;DHT22;56610;48.872;2.400;2022-09-17T02:30:37;14.00;99.90
69418;DHT22;56610;48.872;2.400;2022-09-17T02:33:05;14.00;99.90
69418;DHT22;56610;48.872;2.400;2022-09-17T02:35:32;14.00;99.90
69418;DHT22;56610;48.872;2.400;2022-09-17T02:37:59;14.10;99.90
69418;DHT22;56610;48.872;2.400;2022-09-17T02:40:27;14.10;99.90
69418;DHT22;56610;48.872;2.400;2022-09-17T02:54:15;14.00;99.90
69418;DHT22;56610;48.872;2.400;2022-09-17T02:56:48;14.00;99.90
69418;DHT22;56610;48.872;2.400;2022-09-17T02:59:23;14.10;99.90
69418;DHT22;56610;48.872;2.400;2022-09-17T03:04:36;14.20;99.90
69418;DHT22;56610;48.872;2.400;2022-09-17T03:07:10;14.10;99.90
69418;DHT22;56610;48.872;2.400;2022-09-17T03:09:37;14.20;99.90
69418;DHT22;56610;48.872;2.400;2022-09-17T03:12:03;14.20;99.90
69418;DHT22;56610;48.872;2.400;2022-09-17T03:14:29;14.10;99.90
69418;DHT22;56610;48.872;2.400;2022-09-17T03:16:55;14.20;99.90
69418;DHT22;56610;48.872;2.400;2022-09-17T03:19:20;14.10;99.90
69418;DHT22;56610;48.872;2.400;2022-09-17T03:21:46;14.20;99.90
69418;DHT22;56610;48.872;2.400;2022-09-17T03:24:12;14.20;99.90
69418;DHT22;56610;48.872;2.400;2022-09-17T03:26:38;14.20;99.90
69418;DHT22;56610;48.872;2.400;2022-09-17T03:29:04;14.10;99.90
69418;DHT22;56610;48.872;2.400;2022-09-17T03:31:29;14.10;99.90
69418;DHT22;56610;48.872;2.400;2022-09-17T03:33:55;14.00;99.90
69418;DHT22;56610;48.872;2.400;2022-09-17T03:36:20;14.10;99.90
69418;DHT22;56610;48.872;2.400;2022-09-17T03:38:46;14.20;99.90
69418;DHT22;56610;48.872;2.400;2022-09-17T03:41:12;14.20;99.90
69418;DHT22;56610;48.872;2.400;2022-09-17T03:43:38;14.20;99.90
69418;DHT22;56610;48.872;2.400;2022-09-17T03:46:04;14.10;99.90
69418;DHT22;56610;48.872;2.400;2022-09-17T03:48:30;14.20;99.90
69418;DHT22;56610;48.872;2.400;2022-09-17T03:50:56;14.20;99.90
69418;DHT22;56610;48.872;2.400;2022-09-17T03:53:22;14.20;99.90
69418;DHT22;56610;48.872;2.400;2022-09-17T03:55:48;14.20;99.90
69418;DHT22;56610;48.872;2.400;2022-09-17T03:58:13;14.00;99.90
69418;DHT22;56610;48.872;2.400;2022-09-17T04:00:39;13.90;99.90
69418;DHT22;56610;48.872;2.400;2022-09-17T04:03:25;14.00;99.90
69418;DHT22;56610;48.872;2.400;2022-09-17T04:05:51;13.90;99.90
69418;DHT22;56610;48.872;2.400;2022-09-17T04:08:17;13.80;99.90
69418;DHT22;56610;48.872;2.400;2022-09-17T04:10:44;13.80;99.90
69418;DHT22;56610;48.872;2.400;2022-09-17T04:13:10;13.80;99.90
69418;DHT22;56610;48.872;2.400;2022-09-17T04:15:35;13.90;99.90
69418;DHT22;56610;48.872;2.400;2022-09-17T04:18:01;13.90;99.90
69418;DHT22;56610;48.872;2.400;2022-09-17T04:20:27;13.80;99.90
69418;DHT22;56610;48.872;2.400;2022-09-17T04:22:53;13.80;99.90
69418;DHT22;56610;48.872;2.400;2022-09-17T04:25:18;13.80;99.90
69418;DHT22;56610;48.872;2.400;2022-09-17T04:27:44;13.70;99.90
69418;DHT22;56610;48.872;2.400;2022-09-17T04:30:12;13.60;99.90
69418;DHT22;56610;48.872;2.400;2022-09-17T04:32:38;13.60;99.90
69418;DHT22;56610;48.872;2.400;2022-09-17T04:35:04;13.60;99.90
69418;DHT22;56610;48.872;2.400;2022-09-17T04:37:29;13.70;99.90
69418;DHT22;56610;48.872;2.400;2022-09-17T04:39:55;13.90;99.90
69418;DHT22;56610;48.872;2.400;2022-09-17T04:42:21;13.90;99.90
69418;DHT22;56610;48.872;2.400;2022-09-17T04:44:46;13.80;99.90
69418;DHT22;56610;48.872;2.400;2022-09-17T04:47:12;13.80;99.90
69418;DHT22;56610;48.872;2.400;2022-09-17T04:49:38;13.90;99.90
69418;DHT22;56610;48.872;2.400;2022-09-17T04:52:03;13.70;99.90
69418;DHT22;56610;48.872;2.400;2022-09-17T04:54:29;13.80;99.90
69418;DHT22;56610;48.872;2.400;2022-09-17T04:56:55;13.60;99.90
69418;DHT22;56610;48.872;2.400;2022-09-17T04:59:20;13.50;99.90
69418;DHT22;56610;48.872;2.400;2022-09-17T05:01:46;13.40;99.90
69418;DHT22;56610;48.872;2.400;2022-09-17T05:04:11;13.50;99.90
69418;DHT22;56610;48.872;2.400;2022-09-17T05:06:37;13.60;99.90
69418;DHT22;56610;48.872;2.400;2022-09-17T05:09:02;13.60;99.90
69418;DHT22;56610;48.872;2.400;2022-09-17T05:11:28;13.50;99.90
69418;DHT22;56610;48.872;2.400;2022-09-17T05:13:54;13.50;99.90
69418;DHT22;56610;48.872;2.400;2022-09-17T05:16:20;13.40;99.90
69418;DHT22;56610;48.872;2.400;2022-09-17T05:18:45;13.30;99.90
69418;DHT22;56610;48.872;2.400;2022-09-17T05:21:11;13.30;99.90
69418;DHT22;56610;48.872;2.400;2022-09-17T05:23:36;13.30;99.90
69418;DHT22;56610;48.872;2.400;2022-09-17T05:26:02;13.30;99.90
69418;DHT22;56610;48.872;2.400;2022-09-17T05:28:28;13.30;99.90
69418;DHT22;56610;48.872;2.400;2022-09-17T05:30:57;13.40;99.90
69418;DHT22;56610;48.872;2.400;2022-09-17T05:33:23;13.50;99.90
69418;DHT22;56610;48.872;2.400;2022-09-17T05:35:48;13.50;99.90
69418;DHT22;56610;48.872;2.400;2022-09-17T05:38:14;13.50;99.90
69418;DHT22;56610;48.872;2.400;2022-09-17T05:40:39;13.60;99.90
69418;DHT22;56610;48.872;2.400;2022-09-17T05:43:06;13.50;99.90
69418;DHT22;56610;48.872;2.400;2022-09-17T05:45:33;13.40;99.90
69418;DHT22;56610;48.872;2.400;2022-09-17T05:48:00;13.20;99.90
69418;DHT22;56610;48.872;2.400;2022-09-17T05:50:27;13.20;99.90
69418;DHT22;56610;48.872;2.400;2022-09-17T05:52:54;13.00;99.90
69418;DHT22;56610;48.872;2.400;2022-09-17T05:55:21;13.00;99.90
69418;DHT22;56610;48.872;2.400;2022-09-17T05:57:47;13.10;99.90
69418;DHT22;56610;48.872;2.400;2022-09-17T06:00:13;13.20;99.90
69418;DHT22;56610;48.872;2.400;2022-09-17T06:02:39;13.20;99.90
69418;DHT22;56610;48.872;2.400;2022-09-17T06:05:05;13.30;99.90
69418;DHT22;56610;48.872;2.400;2022-09-17T06:07:34;13.30;99.90
69418;DHT22;56610;48.872;2.400;2022-09-17T06:10:01;13.40;99.90
69418;DHT22;56610;48.872;2.400;2022-09-17T06:12:27;13.40;99.90
69418;DHT22;56610;48.872;2.400;2022-09-17T06:14:52;13.40;99.90
69418;DHT22;56610;48.872;2.400;2022-09-17T06:17:18;13.30;99.90
69418;DHT22;56610;48.872;2.400;2022-09-17T06:19:43;13.20;99.90
69418;DHT22;56610;48.872;2.400;2022-09-17T06:22:09;13.10;99.90
69418;DHT22;56610;48.872;2.400;2022-09-17T06:24:35;13.10;99.90
69418;DHT22;56610;48.872;2.400;2022-09-17T06:27:00;13.10;99.90
69418;DHT22;56610;48.872;2.400;2022-09-17T06:29:26;13.20;99.90
69418;DHT22;56610;48.872;2.400;2022-09-17T06:31:52;13.30;99.90
69418;DHT22;56610;48.872;2.400;2022-09-17T06:34:18;13.50;99.90
69418;DHT22;56610;48.872;2.400;2022-09-17T06:36:44;13.60;99.90
69418;DHT22;56610;48.872;2.400;2022-09-17T06:39:09;13.80;99.90
69418;DHT22;56610;48.872;2.400;2022-09-17T06:41:37;13.90;99.90
69418;DHT22;56610;48.872;2.400;2022-09-17T06:44:03;14.00;99.90
69418;DHT22;56610;48.872;2.400;2022-09-17T06:46:29;14.00;99.90
69418;DHT22;56610;48.872;2.400;2022-09-17T06:48:55;13.90;99.90
69418;DHT22;56610;48.872;2.400;2022-09-17T06:51:20;13.70;99.90
69418;DHT22;56610;48.872;2.400;2022-09-17T06:53:47;13.70;99.90
69418;DHT22;56610;48.872;2.400;2022-09-17T06:56:13;13.60;99.90
69418;DHT22;56610;48.872;2.400;2022-09-17T06:58:39;13.60;99.90
69418;DHT22;56610;48.872;2.400;2022-09-17T07:01:10;13.70;99.90
69418;DHT22;56610;48.872;2.400;2022-09-17T07:03:35;13.80;99.90
69418;DHT22;56610;48.872;2.400;2022-09-17T07:06:02;13.80;99.90
69418;DHT22;56610;48.872;2.400;2022-09-17T07:08:27;13.80;99.90
69418;DHT22;56610;48.872;2.400;2022-09-17T07:10:57;13.70;99.90
69418;DHT22;56610;48.872;2.400;2022-09-17T07:13:23;13.70;99.90
69418;DHT22;56610;48.872;2.400;2022-09-17T07:15:57;13.60;99.90
69418;DHT22;56610;48.872;2.400;2022-09-17T07:18:23;13.60;99.90
69418;DHT22;56610;48.872;2.400;2022-09-17T07:20:57;13.80;99.90
69418;DHT22;56610;48.872;2.400;2022-09-17T07:23:24;13.90;99.90
69418;DHT22;56610;48.872;2.400;2022-09-17T07:25:51;13.90;99.90
69418;DHT22;56610;48.872;2.400;2022-09-17T07:28:17;14.00;99.90
69418;DHT22;56610;48.872;2.400;2022-09-17T07:30:42;13.90;99.90
69418;DHT22;56610;48.872;2.400;2022-09-17T07:33:08;13.90;99.90
69418;DHT22;56610;48.872;2.400;2022-09-17T07:35:33;14.10;99.90
69418;DHT22;56610;48.872;2.400;2022-09-17T07:37:59;14.10;99.90
69418;DHT22;56610;48.872;2.400;2022-09-17T07:40:24;14.20;99.90
69418;DHT22;56610;48.872;2.400;2022-09-17T07:42:50;14.10;99.90
69418;DHT22;56610;48.872;2.400;2022-09-17T07:45:16;14.20;99.90
69418;DHT22;56610;48.872;2.400;2022-09-17T07:47:41;14.20;99.90
69418;DHT22;56610;48.872;2.400;2022-09-17T07:50:07;14.20;99.90
69418;DHT22;56610;48.872;2.400;2022-09-17T07:52:33;14.50;99.90
69418;DHT22;56610;48.872;2.400;2022-09-17T07:54:58;14.60;99.90
69418;DHT22;56610;48.872;2.400;2022-09-17T07:57:24;14.60;99.90
69418;DHT22;56610;48.872;2.400;2022-09-17T07:59:50;14.50;99.90
69418;DHT22;56610;48.872;2.400;2022-09-17T08:02:15;14.50;99.90
69418;DHT22;56610;48.872;2.400;2022-09-17T08:04:41;14.50;99.90
69418;DHT22;56610;48.872;2.400;2022-09-17T08:07:10;14.50;99.90
69418;DHT22;56610;48.872;2.400;2022-09-17T08:09:36;14.60;99.90
69418;DHT22;56610;48.872;2.400;2022-09-17T08:12:02;14.70;99.90
69418;DHT22;56610;48.872;2.400;2022-09-17T08:14:28;14.80;99.90
69418;DHT22;56610;48.872;2.400;2022-09-17T08:16:53;14.90;99.90
69418;DHT22;56610;48.872;2.400;2022-09-17T08:19:19;15.00;99.90
69418;DHT22;56610;48.872;2.400;2022-09-17T08:21:45;14.90;99.90
69418;DHT22;56610;48.872;2.400;2022-09-17T08:24:11;15.00;99.90
69418;DHT22;56610;48.872;2.400;2022-09-17T08:26:36;15.10;99.90
69418;DHT22;56610;48.872;2.400;2022-09-17T08:29:03;15.30;99.90
69418;DHT22;56610;48.872;2.400;2022-09-17T08:31:28;15.20;99.90
69418;DHT22;56610;48.872;2.400;2022-09-17T08:33:54;15.30;99.90
69418;DHT22;56610;48.872;2.400;2022-09-17T08:36:20;15.40;99.90
69418;DHT22;56610;48.872;2.400;2022-09-17T08:38:52;15.40;99.90
69418;DHT22;56610;48.872;2.400;2022-09-17T08:44:20;15.40;99.90
69418;DHT22;56610;48.872;2.400;2022-09-17T08:46:52;15.50;99.90
69418;DHT22;56610;48.872;2.400;2022-09-17T08:54:55;16.00;99.90
69418;DHT22;56610;48.872;2.400;2022-09-17T09:00:14;15.50;99.90
69418;DHT22;56610;48.872;2.400;2022-09-17T09:08:41;15.70;99.90
69418;DHT22;56610;48.872;2.400;2022-09-17T09:11:14;15.80;99.90
69418;DHT22;56610;48.872;2.400;2022-09-17T09:13:54;15.90;99.90
69418;DHT22;56610;48.872;2.400;2022-09-17T09:16:28;15.90;99.90
69418;DHT22;56610;48.872;2.400;2022-09-17T09:22:10;15.90;99.90
69418;DHT22;56610;48.872;2.400;2022-09-17T09:25:00;16.00;99.90
69418;DHT22;56610;48.872;2.400;2022-09-17T09:27:28;16.10;99.90
69418;DHT22;56610;48.872;2.400;2022-09-17T09:35:37;15.90;99.90
69418;DHT22;56610;48.872;2.400;2022-09-17T09:38:31;15.90;99.90
69418;DHT22;56610;48.872;2.400;2022-09-17T09:41:10;15.90;99.90
69418;DHT22;56610;48.872;2.400;2022-09-17T09:43:49;15.90;99.90
69418;DHT22;56610;48.872;2.400;2022-09-17T09:46:40;15.90;99.90
69418;DHT22;56610;48.872;2.400;2022-09-17T09:49:18;16.10;99.90
69418;DHT22;56610;48.872;2.400;2022-09-17T09:54:57;16.20;99.90
69418;DHT22;56610;48.872;2.400;2022-09-17T09:57:43;16.30;99.90
69418;DHT22;56610;48.872;2.400;2022-09-17T10:00:35;16.40;99.90
69418;DHT22;56610;48.872;2.400;2022-09-17T10:05:37;16.50;99.90
69418;DHT22;56610;48.872;2.400;2022-09-17T10:08:13;16.60;99.90
69418;DHT22;56610;48.872;2.400;2022-09-17T10:11:05;16.70;99.90
69418;DHT22;56610;48.872;2.400;2022-09-17T10:13:33;16.70;99.90
69418;DHT22;56610;48.872;2.400;2022-09-17T10:16:20;16.70;99.90
69418;DHT22;56610;48.872;2.400;2022-09-17T10:18:48;16.70;99.90
69418;DHT22;56610;48.872;2.400;2022-09-17T10:21:22;16.80;99.90
69418;DHT22;56610;48.872;2.400;2022-09-17T10:23:54;16.90;99.90
69418;DHT22;56610;48.872;2.400;2022-09-17T10:26:26;17.00;99.50
69418;DHT22;56610;48.872;2.400;2022-09-17T10:28:55;17.00;99.90
69418;DHT22;56610;48.872;2.400;2022-09-17T10:31:21;17.10;99.50
69418;DHT22;56610;48.872;2.400;2022-09-17T10:33:55;17.40;99.40
69418;DHT22;56610;48.872;2.400;2022-09-17T10:36:42;17.60;98.70
69418;DHT22;56610;48.872;2.400;2022-09-17T10:42:02;17.50;97.80
69418;DHT22;56610;48.872;2.400;2022-09-17T10:44:33;17.50;98.10
69418;DHT22;56610;48.872;2.400;2022-09-17T10:50:16;17.60;97.10
69418;DHT22;56610;48.872;2.400;2022-09-17T10:52:50;17.80;97.10
69418;DHT22;56610;48.872;2.400;2022-09-17T11:05:57;18.50;94.40
69418;DHT22;56610;48.872;2.400;2022-09-17T11:11:20;18.40;91.70
69418;DHT22;56610;48.872;2.400;2022-09-17T11:21:48;18.70;90.40
69418;DHT22;56610;48.872;2.400;2022-09-17T11:24:24;19.10;90.40
69418;DHT22;56610;48.872;2.400;2022-09-17T11:26:57;19.00;90.30
69418;DHT22;56610;48.872;2.400;2022-09-17T11:35:37;19.50;91.10
69418;DHT22;56610;48.872;2.400;2022-09-17T11:38:28;19.80;90.70
69418;DHT22;56610;48.872;2.400;2022-09-17T11:41:01;19.90;90.00
69418;DHT22;56610;48.872;2.400;2022-09-17T11:43:34;20.10;88.90
69418;DHT22;56610;48.872;2.400;2022-09-17T11:49:04;20.70;86.80
69418;DHT22;56610;48.872;2.400;2022-09-17T11:51:41;21.00;86.30
69418;DHT22;56610;48.872;2.400;2022-09-17T11:54:28;21.50;84.00
69418;DHT22;56610;48.872;2.400;2022-09-17T11:57:21;21.50;83.10
69418;DHT22;56610;48.872;2.400;2022-09-17T12:00:03;21.60;83.70
69418;DHT22;56610;48.872;2.400;2022-09-17T12:05:40;21.60;83.80
69418;DHT22;56610;48.872;2.400;2022-09-17T12:08:14;21.80;82.90
69418;DHT22;56610;48.872;2.400;2022-09-17T12:11:05;21.80;82.40
69418;DHT22;56610;48.872;2.400;2022-09-17T12:13:42;22.10;81.10
69418;DHT22;56610;48.872;2.400;2022-09-17T12:16:33;21.60;79.80
69418;DHT22;56610;48.872;2.400;2022-09-17T12:19:21;21.50;80.00
69418;DHT22;56610;48.872;2.400;2022-09-17T12:21:55;21.10;79.70
69418;DHT22;56610;48.872;2.400;2022-09-17T12:24:24;21.40;80.60
69418;DHT22;56610;48.872;2.400;2022-09-17T12:40:34;21.20;79.00
69418;DHT22;56610;48.872;2.400;2022-09-17T12:43:24;20.90;80.30
69418;DHT22;56610;48.872;2.400;2022-09-17T12:51:15;21.70;78.40
69418;DHT22;56610;48.872;2.400;2022-09-17T12:53:53;21.80;77.90
69418;DHT22;56610;48.872;2.400;2022-09-17T12:59:22;22.00;77.40
69418;DHT22;56610;48.872;2.400;2022-09-17T13:02:07;21.60;78.00
69418;DHT22;56610;48.872;2.400;2022-09-17T13:07:33;20.90;78.60
69418;DHT22;56610;48.872;2.400;2022-09-17T13:10:24;20.90;78.70
69418;DHT22;56610;48.872;2.400;2022-09-17T13:23:57;20.90;78.90
69418;DHT22;56610;48.872;2.400;2022-09-17T13:26:34;20.60;79.20
69418;DHT22;56610;48.872;2.400;2022-09-17T13:29:00;20.60;79.50
69418;DHT22;56610;48.872;2.400;2022-09-17T13:36:48;20.50;80.30
69418;DHT22;56610;48.872;2.400;2022-09-17T13:39:34;20.40;81.10
69418;DHT22;56610;48.872;2.400;2022-09-17T13:42:27;20.30;81.50
69418;DHT22;56610;48.872;2.400;2022-09-17T13:50:29;20.20;79.30
69418;DHT22;56610;48.872;2.400;2022-09-17T13:52:58;20.30;78.80
69418;DHT22;56610;48.872;2.400;2022-09-17T13:55:54;20.30;79.00
69418;DHT22;56610;48.872;2.400;2022-09-17T13:58:27;20.70;79.00
69418;DHT22;56610;48.872;2.400;2022-09-17T14:19:02;21.50;76.10
69418;DHT22;56610;48.872;2.400;2022-09-17T14:21:31;21.70;76.10
69418;DHT22;56610;48.872;2.400;2022-09-17T14:23:58;21.90;74.70
69418;DHT22;56610;48.872;2.400;2022-09-17T14:29:19;21.80;75.40
69418;DHT22;56610;48.872;2.400;2022-09-17T14:31:48;22.30;74.60
69418;DHT22;56610;48.872;2.400;2022-09-17T14:34:19;22.60;74.40
69418;DHT22;56610;48.872;2.400;2022-09-17T14:36:46;22.80;72.80
69418;DHT22;56610;48.872;2.400;2022-09-17T14:39:21;22.80;72.20
69418;DHT22;56610;48.872;2.400;2022-09-17T14:41:48;23.00;71.80
69418;DHT22;56610;48.872;2.400;2022-09-17T14:44:18;23.30;71.60
69418;DHT22;56610;48.872;2.400;2022-09-17T14:46:59;23.20;69.90
69418;DHT22;56610;48.872;2.400;2022-09-17T14:49:35;22.70;70.20
69418;DHT22;56610;48.872;2.400;2022-09-17T14:52:01;22.40;71.50
69418;DHT22;56610;48.872;2.400;2022-09-17T14:54:42;22.10;72.10
69418;DHT22;56610;48.872;2.400;2022-09-17T14:59:50;22.10;72.20
69418;DHT22;56610;48.872;2.400;2022-09-17T15:04:57;21.80;72.40
69418;DHT22;56610;48.872;2.400;2022-09-17T15:07:24;22.10;72.50
69418;DHT22;56610;48.872;2.400;2022-09-17T15:09:49;22.50;71.00
69418;DHT22;56610;48.872;2.400;2022-09-17T15:12:26;23.00;71.20
69418;DHT22;56610;48.872;2.400;2022-09-17T15:15:20;23.10;70.70
69418;DHT22;56610;48.872;2.400;2022-09-17T15:17:47;22.60;71.00
69418;DHT22;56610;48.872;2.400;2022-09-17T15:20:20;22.60;71.50
69418;DHT22;56610;48.872;2.400;2022-09-17T15:22:54;22.50;71.00
69418;DHT22;56610;48.872;2.400;2022-09-17T15:25:22;22.30;71.50
69418;DHT22;56610;48.872;2.400;2022-09-17T15:27:54;22.00;71.90
69418;DHT22;56610;48.872;2.400;2022-09-17T15:30:24;21.60;71.90
69418;DHT22;56610;48.872;2.400;2022-09-17T15:33:00;21.50;72.40
69418;DHT22;56610;48.872;2.400;2022-09-17T15:35:30;21.40;72.40
69418;DHT22;56610;48.872;2.400;2022-09-17T15:38:01;21.30;72.50
69418;DHT22;56610;48.872;2.400;2022-09-17T15:40:39;21.40;72.80
69418;DHT22;56610;48.872;2.400;2022-09-17T15:43:25;21.50;72.00
69418;DHT22;56610;48.872;2.400;2022-09-17T15:45:52;21.20;72.20
69418;DHT22;56610;48.872;2.400;2022-09-17T15:50:51;20.70;72.80
69418;DHT22;56610;48.872;2.400;2022-09-17T15:53:32;20.80;72.80
69418;DHT22;56610;48.872;2.400;2022-09-17T15:56:14;20.90;73.20
69418;DHT22;56610;48.872;2.400;2022-09-17T16:08:53;20.10;73.80
69418;DHT22;56610;48.872;2.400;2022-09-17T16:11:21;19.80;72.60
69418;DHT22;56610;48.872;2.400;2022-09-17T16:13:52;19.50;73.10
69418;DHT22;56610;48.872;2.400;2022-09-17T16:16:20;19.50;74.30
69418;DHT22;56610;48.872;2.400;2022-09-17T16:18:47;19.50;74.40
69418;DHT22;56610;48.872;2.400;2022-09-17T16:21:14;19.30;75.10
69418;DHT22;56610;48.872;2.400;2022-09-17T16:23:40;19.10;76.10
69418;DHT22;56610;48.872;2.400;2022-09-17T16:26:10;18.80;76.70
69418;DHT22;56610;48.872;2.400;2022-09-17T16:28:37;18.90;76.60
69418;DHT22;56610;48.872;2.400;2022-09-17T16:31:04;18.80;75.60
69418;DHT22;56610;48.872;2.400;2022-09-17T16:33:30;18.90;76.10
69418;DHT22;56610;48.872;2.400;2022-09-17T16:35:56;18.90;75.90
69418;DHT22;56610;48.872;2.400;2022-09-17T16:38:22;19.00;76.90
69418;DHT22;56610;48.872;2.400;2022-09-17T16:40:48;19.00;77.00
69418;DHT22;56610;48.872;2.400;2022-09-17T16:43:14;19.20;77.40
69418;DHT22;56610;48.872;2.400;2022-09-17T16:45:39;19.40;77.50
69418;DHT22;56610;48.872;2.400;2022-09-17T16:48:06;19.30;77.20
69418;DHT22;56610;48.872;2.400;2022-09-17T16:50:32;19.10;78.00
69418;DHT22;56610;48.872;2.400;2022-09-17T16:52:58;19.10;78.20
69418;DHT22;56610;48.872;2.400;2022-09-17T16:55:25;19.00;78.30
69418;DHT22;56610;48.872;2.400;2022-09-17T16:57:50;19.00;77.90
69418;DHT22;56610;48.872;2.400;2022-09-17T17:00:18;19.00;78.10
69418;DHT22;56610;48.872;2.400;2022-09-17T17:02:54;19.10;77.40
69418;DHT22;56610;48.872;2.400;2022-09-17T17:05:22;19.20;77.70
69418;DHT22;56610;48.872;2.400;2022-09-17T17:07:48;18.90;78.30
69418;DHT22;56610;48.872;2.400;2022-09-17T17:10:14;18.80;78.70
69418;DHT22;56610;48.872;2.400;2022-09-17T17:12:39;18.70;79.40
69418;DHT22;56610;48.872;2.400;2022-09-17T17:15:05;18.60;79.90
69418;DHT22;56610;48.872;2.400;2022-09-17T17:17:31;18.60;80.20
69418;DHT22;56610;48.872;2.400;2022-09-17T17:20:00;18.60;80.60
69418;DHT22;56610;48.872;2.400;2022-09-17T17:22:26;18.60;81.20
69418;DHT22;56610;48.872;2.400;2022-09-17T17:24:51;18.60;81.90
69418;DHT22;56610;48.872;2.400;2022-09-17T17:27:17;18.60;81.90
69418;DHT22;56610;48.872;2.400;2022-09-17T17:29:42;18.80;81.80
69418;DHT22;56610;48.872;2.400;2022-09-17T17:32:08;18.90;81.50
69418;DHT22;56610;48.872;2.400;2022-09-17T17:34:34;18.80;81.70
69418;DHT22;56610;48.872;2.400;2022-09-17T17:36:59;18.80;81.10
69418;DHT22;56610;48.872;2.400;2022-09-17T17:39:25;18.80;81.10
69418;DHT22;56610;48.872;2.400;2022-09-17T17:41:51;18.70;80.30
69418;DHT22;56610;48.872;2.400;2022-09-17T17:44:18;18.60;80.60
69418;DHT22;56610;48.872;2.400;2022-09-17T17:46:44;18.40;81.00
69418;DHT22;56610;48.872;2.400;2022-09-17T17:49:10;18.20;81.40
69418;DHT22;56610;48.872;2.400;2022-09-17T17:51:35;18.10;82.10
69418;DHT22;56610;48.872;2.400;2022-09-17T17:54:01;18.10;81.90
69418;DHT22;56610;48.872;2.400;2022-09-17T17:56:26;18.10;82.30
69418;DHT22;56610;48.872;2.400;2022-09-17T17:58:56;18.20;81.90
69418;DHT22;56610;48.872;2.400;2022-09-17T18:01:25;18.20;82.00
69418;DHT22;56610;48.872;2.400;2022-09-17T18:03:58;18.30;82.00
69418;DHT22;56610;48.872;2.400;2022-09-17T18:06:25;18.30;82.10
69418;DHT22;56610;48.872;2.400;2022-09-17T18:08:51;18.30;82.40
69418;DHT22;56610;48.872;2.400;2022-09-17T18:11:17;18.20;82.60
69418;DHT22;56610;48.872;2.400;2022-09-17T18:13:43;18.20;83.70
69418;DHT22;56610;48.872;2.400;2022-09-17T18:16:12;18.20;83.20
69418;DHT22;56610;48.872;2.400;2022-09-17T18:18:40;18.10;83.70
69418;DHT22;56610;48.872;2.400;2022-09-17T18:21:08;18.10;83.80
69418;DHT22;56610;48.872;2.400;2022-09-17T18:23:37;18.20;83.60
69418;DHT22;56610;48.872;2.400;2022-09-17T18:26:04;18.10;84.60
69418;DHT22;56610;48.872;2.400;2022-09-17T18:28:31;18.00;84.00
69418;DHT22;56610;48.872;2.400;2022-09-17T18:31:06;17.80;84.80
69418;DHT22;56610;48.872;2.400;2022-09-17T18:33:32;17.80;85.30
69418;DHT22;56610;48.872;2.400;2022-09-17T18:36:01;17.90;85.20
69418;DHT22;56610;48.872;2.400;2022-09-17T18:38:28;17.90;85.10
69418;DHT22;56610;48.872;2.400;2022-09-17T18:40:53;17.80;85.40
69418;DHT22;56610;48.872;2.400;2022-09-17T18:43:19;17.70;85.60
69418;DHT22;56610;48.872;2.400;2022-09-17T18:45:55;17.80;86.10
69418;DHT22;56610;48.872;2.400;2022-09-17T18:48:22;17.70;86.10
69418;DHT22;56610;48.872;2.400;2022-09-17T18:51:05;17.90;86.10
69418;DHT22;56610;48.872;2.400;2022-09-17T18:53:36;17.90;85.90
69418;DHT22;56610;48.872;2.400;2022-09-17T18:56:22;17.70;86.40
69418;DHT22;56610;48.872;2.400;2022-09-17T18:58:51;17.70;86.60